createdAt,value
2023-01-06T00:00:02.194Z,7.67
2023-01-06T00:02:37.864Z,8.87
2023-01-06T00:05:11.557Z,9.73
2023-01-06T00:07:44.200Z,8.17
2023-01-06T00:10:15.935Z,6.60
2023-01-06T00:12:47.495Z,10.13
2023-01-06T00:15:21.228Z,11.40
2023-01-06T00:17:51.071Z,6.63
2023-01-06T00:20:21.030Z,6.57
2023-01-06T00:22:50.909Z,6.70
2023-01-06T00:25:20.821Z,6.90
2023-01-06T00:27:50.600Z,6.00
2023-01-06T00:30:23.591Z,7.10
2023-01-06T00:32:53.933Z,7.10
2023-01-06T00:35:24.437Z,8.60
2023-01-06T00:37:54.239Z,8.20
2023-01-06T00:40:24.931Z,18.53
2023-01-06T00:42:55.370Z,30.67
2023-01-06T00:45:28.712Z,25.57
2023-01-06T00:47:58.571Z,29.30
2023-01-06T00:50:29.257Z,39.70
2023-01-06T00:52:59.044Z,8.10
2023-01-06T00:55:30.253Z,5.43
2023-01-06T00:58:00.146Z,4.20
2023-01-06T01:00:32.952Z,7.60
2023-01-06T01:03:02.891Z,3.90
2023-01-06T01:05:34.112Z,3.70
2023-01-06T01:08:04.939Z,8.23
2023-01-06T01:10:43.034Z,67.63
2023-01-06T01:13:23.781Z,47.03
2023-01-06T01:15:59.718Z,34.77
2023-01-06T01:18:33.995Z,40.03
2023-01-06T01:21:04.685Z,83.40
2023-01-06T01:23:37.622Z,50.87
2023-01-06T01:26:08.544Z,69.33
2023-01-06T01:28:38.407Z,39.13
2023-01-06T01:31:11.207Z,98.77
2023-01-06T01:33:41.869Z,84.40
2023-01-06T01:36:15.275Z,43.70
2023-01-06T01:38:46.253Z,32.63
2023-01-06T01:41:18.782Z,43.07
2023-01-06T01:43:50.583Z,50.20
2023-01-06T01:46:31.482Z,91.50
2023-01-06T01:49:05.105Z,102.70
2023-01-06T01:51:40.000Z,51.97
2023-01-06T01:54:16.726Z,32.03
2023-01-06T01:56:50.359Z,45.30
2023-01-06T01:59:24.630Z,35.10
2023-01-06T02:01:57.450Z,52.10
2023-01-06T02:04:30.528Z,84.00
2023-01-06T02:07:01.195Z,89.73
2023-01-06T02:09:37.306Z,36.87
2023-01-06T02:12:07.907Z,31.50
2023-01-06T02:14:39.059Z,34.03
2023-01-06T02:17:32.284Z,65.00
2023-01-06T02:20:30.039Z,31.37
2023-01-06T02:23:24.405Z,22.67
2023-01-06T02:26:40.208Z,59.23
2023-01-06T02:29:41.442Z,53.60
2023-01-06T02:32:24.223Z,50.13
2023-01-06T02:35:04.399Z,18.30
2023-01-06T02:37:49.185Z,47.17
2023-01-06T02:40:35.665Z,62.27
2023-01-06T02:43:16.491Z,45.70
2023-01-06T02:45:54.903Z,36.70
2023-01-06T02:48:34.320Z,39.23
2023-01-06T02:51:11.245Z,40.40
2023-01-06T02:53:47.397Z,38.20
2023-01-06T02:56:18.175Z,50.83
2023-01-06T02:58:56.293Z,18.10
2023-01-06T03:01:31.116Z,20.60
2023-01-06T03:04:08.296Z,21.97
2023-01-06T03:06:45.113Z,33.43
2023-01-06T03:09:19.999Z,28.07
2023-01-06T03:11:54.987Z,12.97
2023-01-06T03:14:31.445Z,32.10
2023-01-06T03:17:03.331Z,33.43
2023-01-06T03:19:36.430Z,25.03
2023-01-06T03:22:09.235Z,31.77
2023-01-06T03:24:41.380Z,16.20
2023-01-06T03:27:13.891Z,18.67
2023-01-06T03:29:47.136Z,39.90
2023-01-06T03:32:27.725Z,14.07
2023-01-06T03:35:22.696Z,16.30
2023-01-06T03:38:04.060Z,15.27
2023-01-06T03:40:41.629Z,5.43
2023-01-06T03:43:18.855Z,23.70
2023-01-06T03:45:58.101Z,7.10
2023-01-06T03:48:51.889Z,9.03
2023-01-06T03:52:06.368Z,17.00
2023-01-06T03:54:46.671Z,18.00
2023-01-06T03:57:21.498Z,5.67
2023-01-06T04:00:00.486Z,10.67
2023-01-06T04:02:31.400Z,15.80
2023-01-06T04:05:12.159Z,3.80
2023-01-06T04:07:46.634Z,3.93
2023-01-06T04:10:21.231Z,5.30
2023-01-06T04:12:51.836Z,12.63
2023-01-06T04:15:29.650Z,15.27
2023-01-06T04:18:01.447Z,4.50
2023-01-06T04:20:34.955Z,3.43
2023-01-06T04:23:21.003Z,4.10
2023-01-06T04:25:58.584Z,3.60
2023-01-06T04:28:42.957Z,4.47
2023-01-06T04:31:13.336Z,3.77
2023-01-06T04:33:44.048Z,3.33
2023-01-06T04:36:15.794Z,3.20
2023-01-06T04:38:52.491Z,3.00
2023-01-06T04:41:23.017Z,2.53
2023-01-06T04:43:53.036Z,2.70
2023-01-06T04:46:26.050Z,2.70
2023-01-06T04:48:55.855Z,2.60
2023-01-06T04:51:25.686Z,5.07
2023-01-06T04:53:59.344Z,5.00
2023-01-06T04:56:29.923Z,12.90
2023-01-06T05:02:27.153Z,5.00
2023-01-06T05:05:16.472Z,24.73
2023-01-06T05:07:51.260Z,26.20
2023-01-06T05:11:06.145Z,18.83
2023-01-06T05:13:39.443Z,4.60
2023-01-06T05:16:11.750Z,4.33
2023-01-06T05:18:41.886Z,4.30
2023-01-06T05:21:12.189Z,4.40
2023-01-06T05:23:51.914Z,4.03
2023-01-06T05:26:39.088Z,4.50
2023-01-06T05:29:12.338Z,4.57
2023-01-06T05:31:55.546Z,4.93
2023-01-06T05:34:40.207Z,4.00
2023-01-06T05:37:31.038Z,4.43
2023-01-06T05:40:13.593Z,4.90
2023-01-06T05:42:48.049Z,6.00
2023-01-06T05:45:47.983Z,5.00
2023-01-06T05:48:25.577Z,5.00
2023-01-06T05:51:04.301Z,5.00
2023-01-06T05:53:35.476Z,5.03
2023-01-06T05:56:06.118Z,5.73
2023-01-06T05:58:41.046Z,6.40
2023-01-06T06:01:19.953Z,15.07
2023-01-06T06:03:50.149Z,33.30
2023-01-06T06:06:21.843Z,14.57
2023-01-06T06:08:51.905Z,7.07
2023-01-06T06:11:22.949Z,5.03
2023-01-06T06:13:56.740Z,5.17
2023-01-06T06:16:29.599Z,4.97
2023-01-06T06:19:01.549Z,5.50
2023-01-06T06:21:33.864Z,5.40
2023-01-06T06:24:03.866Z,5.70
2023-01-06T06:26:34.282Z,5.70
2023-01-06T06:29:08.266Z,5.10
2023-01-06T06:31:38.439Z,4.57
2023-01-06T06:34:08.472Z,5.03
2023-01-06T06:36:38.995Z,6.00
2023-01-06T06:39:08.830Z,8.40
2023-01-06T06:41:38.960Z,9.97
2023-01-06T06:44:11.566Z,7.20
2023-01-06T06:46:41.715Z,6.53
2023-01-06T06:49:12.121Z,6.50
2023-01-06T06:51:49.753Z,5.77
2023-01-06T06:54:20.041Z,5.57
2023-01-06T06:56:50.999Z,5.50
2023-01-06T06:59:23.564Z,5.93
2023-01-06T07:02:08.394Z,6.40
2023-01-06T07:04:59.558Z,4.90
2023-01-06T07:07:42.661Z,4.77
2023-01-06T07:10:23.186Z,5.00
2023-01-06T07:13:05.533Z,6.53
2023-01-06T07:15:47.342Z,7.23
2023-01-06T07:18:21.989Z,5.27
2023-01-06T07:20:59.531Z,4.90
2023-01-06T07:23:51.151Z,5.47
2023-01-06T07:26:34.373Z,4.93
2023-01-06T07:32:01.183Z,3.70
2023-01-06T07:34:31.084Z,3.53
2023-01-06T07:37:07.202Z,3.83
2023-01-06T07:39:37.642Z,3.50
2023-01-06T07:42:13.521Z,3.90
2023-01-06T07:44:48.126Z,3.30
2023-01-06T07:47:22.423Z,3.40
2023-01-06T07:49:52.355Z,3.40
2023-01-06T07:52:23.142Z,3.20
2023-01-06T07:55:09.938Z,3.20
2023-01-06T07:58:04.935Z,3.40
2023-01-06T08:01:00.524Z,3.30
2023-01-06T08:07:11.983Z,2.37
2023-01-06T08:09:47.300Z,2.73
2023-01-06T08:12:22.850Z,2.50
2023-01-06T08:14:55.241Z,2.77
2023-01-06T08:17:34.388Z,1.93
2023-01-06T08:20:10.894Z,1.53
2023-01-06T08:22:49.608Z,1.70
2023-01-06T08:25:26.385Z,2.17
2023-01-06T08:28:02.444Z,1.90
2023-01-06T08:30:44.392Z,1.53
2023-01-06T08:33:15.354Z,1.87
2023-01-06T08:35:49.726Z,1.83
2023-01-06T08:38:21.175Z,1.70
2023-01-06T08:40:53.766Z,2.20
2023-01-06T08:43:23.815Z,2.20
2023-01-06T08:45:53.964Z,1.90
2023-01-06T08:48:23.776Z,2.57
2023-01-06T08:50:56.718Z,1.70
2023-01-06T08:53:26.608Z,1.40
2023-01-06T08:55:56.380Z,1.40
2023-01-06T08:58:26.416Z,1.83
2023-01-06T09:01:01.310Z,1.20
2023-01-06T09:03:34.469Z,1.10
2023-01-06T09:06:07.374Z,1.50
2023-01-06T09:08:38.013Z,1.30
2023-01-06T09:11:09.116Z,1.47
2023-01-06T09:13:39.616Z,1.97
2023-01-06T09:16:10.933Z,1.53
2023-01-06T09:18:41.288Z,1.40
2023-01-06T09:21:13.714Z,1.77
2023-01-06T09:23:43.669Z,1.77
2023-01-06T09:26:13.609Z,1.20
2023-01-06T09:28:43.960Z,1.20
2023-01-06T09:31:14.058Z,1.00
2023-01-06T09:33:44.104Z,1.07
2023-01-06T09:36:16.579Z,1.30
2023-01-06T09:38:46.856Z,1.77
2023-01-06T09:41:41.859Z,1.20
2023-01-06T09:44:19.002Z,1.47
2023-01-06T09:46:54.337Z,1.57
2023-01-06T09:49:30.414Z,0.97
2023-01-06T09:52:18.393Z,0.90
2023-01-06T09:54:56.704Z,1.57
2023-01-06T09:57:35.575Z,1.37
2023-01-06T10:00:08.922Z,1.13
2023-01-06T10:02:42.018Z,1.20
2023-01-06T10:05:22.947Z,1.10
2023-01-06T10:08:03.498Z,1.30
2023-01-06T10:10:42.047Z,0.97
2023-01-06T10:13:35.871Z,1.20
2023-01-06T10:16:15.430Z,1.20
2023-01-06T10:18:56.429Z,1.33
2023-01-06T10:21:49.540Z,1.10
2023-01-06T10:24:48.691Z,1.43
2023-01-06T10:27:29.868Z,0.93
2023-01-06T10:30:03.207Z,0.80
2023-01-06T10:32:37.173Z,0.80
2023-01-06T10:35:17.749Z,1.40
2023-01-06T10:37:50.200Z,0.80
2023-01-06T10:40:31.126Z,0.90
2023-01-06T10:43:06.863Z,1.13
2023-01-06T10:45:41.099Z,1.10
2023-01-06T10:48:16.063Z,1.23
2023-01-06T10:50:46.001Z,1.10
2023-01-06T10:53:17.478Z,1.30
2023-01-06T10:55:53.812Z,0.80
2023-01-06T10:58:34.878Z,1.10
2023-01-06T11:01:12.465Z,1.10
2023-01-06T11:03:45.269Z,1.30
2023-01-06T11:06:26.555Z,1.43
2023-01-06T11:08:59.221Z,1.33
2023-01-06T11:11:50.442Z,1.30
2023-01-06T11:14:36.667Z,1.20
2023-01-06T11:18:02.113Z,1.10
2023-01-06T11:20:44.489Z,1.50
2023-01-06T11:23:32.963Z,1.80
2023-01-06T11:29:47.040Z,1.43
2023-01-06T11:32:35.622Z,1.70
2023-01-06T11:35:09.506Z,1.57
2023-01-06T11:37:42.982Z,1.57
2023-01-06T11:40:24.071Z,1.53
2023-01-06T11:42:57.194Z,1.80
2023-01-06T11:45:40.163Z,1.70
2023-01-06T11:48:21.084Z,1.80
2023-01-06T11:50:56.531Z,2.77
2023-01-06T11:53:42.460Z,2.20
2023-01-06T11:56:20.953Z,2.00
2023-01-06T11:59:01.798Z,2.13
2023-01-06T12:01:56.100Z,1.90
2023-01-06T12:04:38.723Z,2.00
2023-01-06T12:07:20.499Z,2.00
2023-01-06T12:09:53.969Z,1.90
2023-01-06T12:12:27.267Z,1.80
2023-01-06T12:14:58.154Z,1.47
2023-01-06T12:17:41.413Z,1.73
2023-01-06T12:20:19.707Z,1.77
2023-01-06T12:22:54.652Z,1.60
2023-01-06T12:25:28.532Z,2.10
2023-01-06T12:28:01.638Z,1.87
2023-01-06T12:30:37.064Z,1.90
2023-01-06T12:33:24.568Z,2.00
2023-01-06T12:35:59.660Z,2.13
2023-01-06T12:38:44.704Z,2.23
2023-01-06T12:41:19.695Z,2.20
2023-01-06T12:44:02.841Z,2.30
2023-01-06T12:46:51.200Z,2.20
2023-01-06T12:49:33.421Z,1.90
2023-01-06T12:52:10.193Z,1.17
2023-01-06T12:54:41.422Z,13.33
2023-01-06T12:57:29.479Z,21.07
2023-01-06T13:00:24.572Z,15.80
2023-01-06T13:03:15.032Z,25.37
2023-01-06T13:06:03.599Z,22.60
2023-01-06T13:08:48.950Z,23.60
2023-01-06T13:11:31.683Z,40.43
2023-01-06T13:14:06.949Z,18.23
2023-01-06T13:16:43.185Z,24.17
2023-01-06T13:19:23.842Z,31.13
2023-01-06T13:22:01.199Z,42.47
2023-01-06T13:24:45.199Z,37.90
2023-01-06T13:27:39.025Z,25.37
2023-01-06T13:30:23.450Z,37.47
2023-01-06T13:33:09.418Z,17.13
2023-01-06T13:36:01.013Z,27.33
2023-01-06T13:38:54.596Z,32.80
2023-01-06T13:41:28.401Z,27.30
2023-01-06T13:44:00.508Z,12.50
2023-01-06T13:46:31.813Z,8.80
2023-01-06T13:49:04.933Z,12.73
2023-01-06T13:51:38.540Z,27.70
2023-01-06T13:54:46.419Z,25.73
2023-01-06T13:57:33.143Z,13.80
2023-01-06T14:00:27.260Z,14.27
2023-01-06T14:03:16.067Z,22.03
2023-01-06T14:05:57.103Z,16.03
2023-01-06T14:08:33.247Z,16.77
2023-01-06T14:11:23.208Z,18.37
2023-01-06T14:13:55.887Z,22.50
2023-01-06T14:16:47.090Z,5.20
2023-01-06T14:19:26.071Z,5.20
2023-01-06T14:21:58.290Z,5.30
2023-01-06T14:24:34.138Z,5.00
2023-01-06T14:27:09.633Z,5.03
2023-01-06T14:30:09.702Z,5.50
2023-01-06T14:33:03.416Z,5.00
2023-01-06T14:35:42.220Z,5.53
2023-01-06T14:38:25.706Z,5.17
2023-01-06T14:41:00.707Z,4.63
2023-01-06T14:43:41.098Z,5.10
2023-01-06T14:46:45.022Z,5.10
2023-01-06T14:52:45.051Z,5.53
2023-01-06T15:04:23.940Z,5.27
2023-01-06T15:07:38.115Z,5.53
2023-01-06T15:10:47.920Z,5.13
2023-01-06T15:16:40.467Z,5.60
2023-01-06T15:19:17.928Z,5.23
2023-01-06T15:21:50.324Z,5.60
2023-01-06T15:24:23.189Z,5.30
2023-01-06T15:26:53.914Z,6.00
2023-01-06T15:29:27.674Z,6.07
2023-01-06T15:31:58.222Z,6.30
2023-01-06T15:34:36.605Z,7.00
2023-01-06T15:37:09.838Z,6.97
2023-01-06T15:39:42.669Z,7.17
2023-01-06T15:42:15.606Z,8.03
2023-01-06T15:44:58.056Z,7.87
2023-01-06T15:47:34.163Z,6.97
2023-01-06T15:50:09.294Z,6.83
2023-01-06T15:52:42.285Z,6.83
2023-01-06T15:55:25.421Z,6.97
2023-01-06T15:57:59.083Z,7.37
2023-01-06T16:00:31.924Z,7.20
2023-01-06T16:03:02.019Z,7.00
2023-01-06T16:05:41.255Z,7.07
2023-01-06T16:08:20.968Z,7.33
2023-01-06T16:10:51.590Z,7.77
2023-01-06T16:13:29.387Z,7.30
2023-01-06T16:16:03.577Z,8.50
2023-01-06T16:18:35.748Z,7.40
2023-01-06T16:21:25.280Z,7.57
2023-01-06T16:23:57.896Z,7.60
2023-01-06T16:26:30.389Z,7.97
2023-01-06T16:29:02.362Z,7.60
2023-01-06T16:31:36.907Z,6.60
2023-01-06T16:34:26.986Z,7.17
2023-01-06T16:37:01.703Z,6.20
2023-01-06T16:39:31.514Z,7.80
2023-01-06T16:42:36.374Z,7.80
2023-01-06T16:45:11.449Z,7.00
2023-01-06T16:47:41.669Z,7.37
2023-01-06T16:50:19.352Z,6.57
2023-01-06T16:52:57.193Z,7.17
2023-01-06T16:55:27.071Z,6.97
2023-01-06T16:57:57.763Z,6.63
2023-01-06T17:00:28.458Z,6.33
2023-01-06T17:02:58.349Z,6.00
2023-01-06T17:05:31.187Z,6.13
2023-01-06T17:08:05.048Z,5.70
2023-01-06T17:10:35.905Z,4.93
2023-01-06T17:13:20.131Z,5.30
2023-01-06T17:15:54.516Z,5.07
2023-01-06T17:18:27.498Z,4.83
2023-01-06T17:21:02.987Z,5.80
2023-01-06T17:23:42.269Z,5.40
2023-01-06T17:26:17.719Z,5.43
2023-01-06T17:28:48.270Z,4.50
2023-01-06T17:31:20.830Z,5.03
2023-01-06T17:33:50.712Z,5.23
2023-01-06T17:36:26.663Z,5.20
2023-01-06T17:38:59.441Z,5.00
2023-01-06T17:41:31.936Z,5.10
2023-01-06T17:44:01.739Z,5.27
2023-01-06T17:46:36.453Z,4.93
2023-01-06T17:49:30.951Z,5.10
2023-01-06T17:52:01.699Z,4.43
2023-01-06T17:54:47.352Z,4.67
2023-01-06T17:57:20.875Z,4.63
2023-01-06T17:59:56.029Z,4.70
2023-01-06T18:02:40.118Z,4.50
2023-01-06T18:05:48.540Z,4.97
2023-01-06T18:08:19.658Z,4.53
2023-01-06T18:11:00.444Z,4.10
2023-01-06T18:13:35.201Z,4.33
2023-01-06T18:16:08.905Z,4.20
2023-01-06T18:18:40.376Z,4.20
2023-01-06T18:21:29.372Z,3.87
2023-01-06T18:23:59.467Z,4.57
2023-01-06T18:26:41.699Z,3.90
2023-01-06T18:29:16.556Z,3.90
2023-01-06T18:31:48.719Z,3.80
2023-01-06T18:34:43.750Z,3.63
2023-01-06T18:37:14.182Z,3.23
2023-01-06T18:39:47.957Z,2.90
2023-01-06T18:42:27.190Z,3.07
2023-01-06T18:45:21.054Z,3.50
2023-01-06T18:47:55.006Z,2.87
2023-01-06T18:50:37.220Z,3.00
2023-01-06T18:53:20.412Z,3.17
2023-01-06T18:55:51.948Z,3.87
2023-01-06T18:58:47.056Z,4.43
2023-01-06T19:01:21.040Z,4.53
2023-01-06T19:04:01.183Z,3.70
2023-01-06T19:06:41.656Z,5.20
2023-01-06T19:09:34.694Z,4.70
2023-01-06T19:12:18.427Z,5.10
2023-01-06T19:14:53.098Z,5.67
2023-01-06T19:17:27.482Z,5.60
2023-01-06T19:19:58.623Z,5.77
2023-01-06T19:22:30.694Z,5.90
2023-01-06T19:25:04.054Z,5.83
2023-01-06T19:27:41.704Z,6.20
2023-01-06T19:30:40.535Z,6.30
2023-01-06T19:33:20.981Z,6.43
2023-01-06T19:35:51.334Z,6.67
2023-01-06T19:38:29.095Z,6.63
2023-01-06T19:41:02.509Z,6.37
2023-01-06T19:43:35.003Z,6.70
2023-01-06T19:46:20.821Z,6.90
2023-01-06T19:48:51.233Z,6.10
2023-01-06T19:51:29.967Z,8.13
2023-01-06T19:54:02.163Z,7.40
2023-01-06T20:02:46.987Z,10.20
2023-01-06T20:05:18.932Z,15.40
2023-01-06T20:07:49.037Z,28.60
2023-01-06T20:10:18.929Z,46.87
2023-01-06T20:12:48.856Z,52.93
2023-01-06T20:15:19.312Z,86.90
2023-01-06T20:17:52.320Z,65.37
2023-01-06T20:20:22.187Z,82.47
2023-01-06T20:22:52.128Z,89.40
2023-01-06T20:25:22.429Z,89.77
2023-01-06T20:27:52.387Z,113.23
2023-01-06T20:30:22.211Z,109.07
2023-01-06T20:32:54.741Z,133.97
2023-01-06T20:35:24.564Z,53.60
2023-01-06T20:37:54.413Z,66.60
2023-01-06T20:40:24.432Z,69.43
2023-01-06T20:42:54.699Z,64.97
2023-01-06T20:45:24.499Z,81.60
2023-01-06T20:47:57.319Z,67.33
2023-01-06T20:50:27.849Z,94.03
2023-01-06T20:52:57.891Z,36.53
2023-01-06T20:55:28.002Z,33.03
2023-01-06T20:57:58.090Z,41.73
2023-01-06T21:00:27.984Z,82.77
2023-01-06T21:03:01.001Z,46.20
2023-01-06T21:05:30.791Z,126.23
2023-01-06T21:08:00.586Z,82.20
2023-01-06T21:10:30.491Z,85.33
2023-01-06T21:13:01.342Z,96.90
2023-01-06T21:15:31.229Z,129.00
2023-01-06T21:18:03.788Z,121.27
2023-01-06T21:20:33.585Z,97.10
2023-01-06T21:23:03.786Z,131.83
2023-01-06T21:25:33.564Z,118.90
2023-01-06T21:28:03.363Z,133.97
2023-01-06T21:30:33.440Z,138.50
2023-01-06T21:33:06.408Z,158.67
2023-01-06T21:35:36.865Z,146.20
2023-01-06T21:38:07.294Z,158.53
2023-01-06T21:40:37.662Z,61.50
2023-01-06T21:43:10.762Z,72.40
2023-01-06T21:45:41.705Z,97.20
2023-01-06T21:48:15.858Z,99.60
2023-01-06T21:50:47.579Z,115.57
2023-01-06T21:53:18.893Z,138.90
2023-01-06T21:55:48.675Z,74.90
2023-01-06T21:58:18.780Z,85.47
2023-01-06T22:00:48.593Z,149.23
2023-01-06T22:03:21.430Z,138.13
2023-01-06T22:05:51.227Z,65.93
2023-01-06T22:08:22.079Z,96.87
2023-01-06T22:10:52.025Z,40.93
2023-01-06T22:13:24.372Z,108.03
2023-01-06T22:15:54.402Z,52.63
2023-01-06T22:18:30.215Z,60.30
2023-01-06T22:21:00.834Z,97.40
2023-01-06T22:23:34.057Z,47.57
2023-01-06T22:26:03.927Z,56.80
2023-01-06T22:28:34.155Z,51.67
2023-01-06T22:31:04.887Z,86.00
2023-01-06T22:33:38.200Z,63.70
2023-01-06T22:36:08.789Z,102.63
2023-01-06T22:38:39.218Z,23.20
2023-01-06T22:41:10.312Z,83.47
2023-01-06T22:43:40.089Z,85.73
2023-01-06T22:46:09.880Z,55.77
2023-01-06T22:48:45.503Z,87.33
2023-01-06T22:51:16.075Z,64.10
2023-01-06T22:53:46.759Z,47.67
2023-01-06T22:56:16.637Z,51.23
2023-01-06T22:58:47.205Z,43.40
2023-01-06T23:01:17.100Z,56.93
2023-01-06T23:03:49.938Z,32.00
2023-01-06T23:06:20.298Z,53.83
2023-01-06T23:09:00.280Z,47.40
2023-01-06T23:11:32.880Z,39.30
2023-01-06T23:14:02.778Z,33.23
2023-01-06T23:16:32.977Z,29.00
2023-01-06T23:19:05.426Z,15.93
2023-01-06T23:21:37.238Z,19.40
2023-01-06T23:24:09.836Z,19.30
2023-01-06T23:26:43.094Z,11.50
2023-01-06T23:29:14.092Z,12.50
2023-01-06T23:31:46.484Z,10.30
2023-01-06T23:34:20.336Z,9.07
2023-01-06T23:36:50.937Z,11.40
2023-01-06T23:39:20.939Z,13.00
2023-01-06T23:41:51.995Z,11.03
2023-01-06T23:44:22.182Z,11.43
2023-01-06T23:46:52.338Z,9.03
2023-01-06T23:49:24.811Z,13.70
2023-01-06T23:51:55.797Z,45.60
2023-01-06T23:54:25.832Z,20.70
2023-01-06T23:56:56.237Z,48.53
2023-01-06T23:59:26.011Z,28.43
